Terminal Aerodrome Forecast
Issued by NWS Wichita, KS

Home | Current Version | Previous Version | Graphics & Text | Print | Product List | Glossary On
Versions: 1 2 3 4 5 6 7 8 9 10 11 12 13 14
167
FTUS43 KICT 101739
TAFICT
TAF
KICT 101739Z 1018/1118 17015G22KT P6SM SCT035 BKN250
     FM101900 17014G22KT P6SM SCT250
     FM110600 17013KT P6SM SCT025 BKN250
     FM110900 17015KT 6SM -DZ SCT007 BKN025
     FM111100 19012KT 3SM -DZ BR OVC007
     FM111700 20010KT 5SM BR OVC015=

USA.gov is the U.S. government's official web portal to all federal, state and local government web resources and services.